createdAt,value
2022-09-30T00:01:14.399Z,42.90
2022-09-30T00:03:40.846Z,42.82
2022-09-30T00:06:08.671Z,42.88
2022-09-30T00:08:36.498Z,42.61
2022-09-30T00:11:16.583Z,42.79
2022-09-30T00:13:43.883Z,42.75
2022-09-30T00:16:11.472Z,42.59
2022-09-30T00:18:38.218Z,42.69
2022-09-30T00:21:04.744Z,42.34
2022-09-30T00:23:31.400Z,42.55
2022-09-30T00:26:01.903Z,42.35
2022-09-30T00:28:29.156Z,42.21
2022-09-30T00:31:02.371Z,42.35
2022-09-30T00:33:28.825Z,42.35
2022-09-30T00:35:55.268Z,42.27
2022-09-30T00:38:21.610Z,42.35
2022-09-30T00:40:49.189Z,42.28
2022-09-30T00:43:17.423Z,42.03
2022-09-30T00:45:48.510Z,42.06
2022-09-30T00:48:18.544Z,42.04
2022-09-30T00:50:49.658Z,42.14
2022-09-30T00:53:25.969Z,41.93
2022-09-30T00:55:52.372Z,41.88
2022-09-30T00:58:29.392Z,41.86
2022-09-30T01:00:56.527Z,41.92
2022-09-30T01:03:23.246Z,42.14
2022-09-30T01:05:50.954Z,42.08
2022-09-30T01:08:18.777Z,42.27
2022-09-30T01:10:45.265Z,42.02
2022-09-30T01:13:11.971Z,42.18
2022-09-30T01:15:59.523Z,42.12
2022-09-30T01:18:30.590Z,41.93
2022-09-30T01:20:59.940Z,41.83
2022-09-30T01:23:47.259Z,41.79
2022-09-30T01:26:32.282Z,41.62
2022-09-30T01:29:21.953Z,41.66
2022-09-30T01:31:57.689Z,41.76
2022-09-30T01:34:49.816Z,41.79
2022-09-30T01:37:21.987Z,41.78
2022-09-30T01:40:07.838Z,41.67
2022-09-30T01:42:51.173Z,41.71
2022-09-30T01:45:21.786Z,41.81
2022-09-30T01:47:48.122Z,41.80
2022-09-30T01:50:29.594Z,42.00
2022-09-30T01:53:06.848Z,41.81
2022-09-30T01:55:37.576Z,41.85
2022-09-30T01:58:22.292Z,41.80
2022-09-30T02:00:52.747Z,41.59
2022-09-30T02:03:22.306Z,41.69
2022-09-30T02:05:48.642Z,41.83
2022-09-30T02:08:17.983Z,41.54
2022-09-30T02:10:47.321Z,41.57
2022-09-30T02:13:20.228Z,41.68
2022-09-30T02:15:49.088Z,41.55
2022-09-30T02:18:19.790Z,41.76
2022-09-30T02:20:49.112Z,41.59
2022-09-30T02:23:29.221Z,41.79
2022-09-30T02:25:59.809Z,42.60
2022-09-30T02:28:27.407Z,42.34
2022-09-30T02:30:55.729Z,42.16
2022-09-30T02:33:32.284Z,41.91
2022-09-30T02:36:06.978Z,41.97
2022-09-30T02:38:37.456Z,41.78
2022-09-30T02:41:16.286Z,41.78
2022-09-30T02:43:42.786Z,41.58
2022-09-30T02:46:14.849Z,41.66
2022-09-30T02:48:54.390Z,41.78
2022-09-30T02:51:29.821Z,41.70
2022-09-30T02:54:06.787Z,41.86
2022-09-30T02:56:51.166Z,41.76
2022-09-30T02:59:18.016Z,41.68
2022-09-30T03:01:44.606Z,41.45
2022-09-30T03:04:12.952Z,41.67
2022-09-30T03:06:39.571Z,41.75
2022-09-30T03:09:06.559Z,41.71
2022-09-30T03:11:33.062Z,41.67
2022-09-30T03:14:05.610Z,41.60
2022-09-30T03:16:53.452Z,41.75
2022-09-30T03:19:29.164Z,41.78
2022-09-30T03:22:11.226Z,41.87
2022-09-30T03:25:09.132Z,41.73
2022-09-30T03:27:41.007Z,41.54
2022-09-30T03:30:09.315Z,41.76
2022-09-30T03:32:41.815Z,41.60
2022-09-30T03:35:26.927Z,41.67
2022-09-30T03:38:05.508Z,41.67
2022-09-30T03:40:31.938Z,41.65
2022-09-30T03:43:04.962Z,41.57
2022-09-30T03:45:35.171Z,41.33
2022-09-30T03:48:04.306Z,41.31
2022-09-30T03:50:32.020Z,41.49
2022-09-30T03:52:58.561Z,41.42
2022-09-30T03:55:25.635Z,41.32
2022-09-30T03:57:52.171Z,41.32
2022-09-30T04:00:19.078Z,41.07
2022-09-30T04:02:46.049Z,41.16
2022-09-30T04:05:15.498Z,41.16
2022-09-30T04:07:41.964Z,41.11
2022-09-30T04:10:08.709Z,41.08
2022-09-30T04:12:38.151Z,41.08
2022-09-30T04:15:08.475Z,41.03
2022-09-30T04:17:34.854Z,41.18
2022-09-30T04:20:01.306Z,40.98
2022-09-30T04:22:27.701Z,40.77
2022-09-30T04:24:54.055Z,40.77
2022-09-30T04:27:20.604Z,40.77
2022-09-30T04:29:46.972Z,40.99
2022-09-30T04:32:13.358Z,40.88
2022-09-30T04:34:39.672Z,41.05
2022-09-30T04:37:10.616Z,41.00
2022-09-30T04:39:37.315Z,41.04
2022-09-30T04:42:03.734Z,41.06
2022-09-30T04:44:30.196Z,41.01
2022-09-30T04:46:56.552Z,40.96
2022-09-30T04:49:26.322Z,40.87
2022-09-30T04:51:55.717Z,40.75
2022-09-30T04:54:22.327Z,40.66
2022-09-30T04:56:48.794Z,40.67
2022-09-30T04:59:15.120Z,40.70
2022-09-30T05:01:44.434Z,40.60
2022-09-30T05:04:12.287Z,40.73
2022-09-30T05:06:40.813Z,40.75
2022-09-30T05:09:07.297Z,40.67
2022-09-30T05:11:33.970Z,40.80
2022-09-30T05:14:00.459Z,40.66
2022-09-30T05:16:28.023Z,40.82
2022-09-30T05:18:54.665Z,40.89
2022-09-30T05:21:20.993Z,40.86
2022-09-30T05:23:47.961Z,40.87
2022-09-30T05:26:14.430Z,40.89
2022-09-30T05:28:41.762Z,40.90
2022-09-30T05:31:08.491Z,40.96
2022-09-30T05:33:36.029Z,41.28
2022-09-30T05:36:04.651Z,41.31
2022-09-30T05:38:31.074Z,41.38
2022-09-30T05:40:57.431Z,40.93
2022-09-30T05:43:24.362Z,41.13
2022-09-30T05:45:54.858Z,41.10
2022-09-30T05:48:21.684Z,41.25
2022-09-30T05:50:50.521Z,41.21
2022-09-30T05:53:20.423Z,41.33
2022-09-30T05:55:47.547Z,41.29
2022-09-30T05:58:14.876Z,41.17
2022-09-30T06:00:45.548Z,41.22
2022-09-30T06:03:12.250Z,41.25
2022-09-30T06:05:38.757Z,41.50
2022-09-30T06:08:07.225Z,41.26
2022-09-30T06:10:34.489Z,41.46
2022-09-30T06:13:02.820Z,41.44
2022-09-30T06:15:29.575Z,41.48
2022-09-30T06:17:56.371Z,41.64
2022-09-30T06:20:22.826Z,41.43
2022-09-30T06:22:49.229Z,41.66
2022-09-30T06:25:15.804Z,41.64
2022-09-30T06:27:46.646Z,41.69
2022-09-30T06:30:16.456Z,41.45
2022-09-30T06:32:42.887Z,41.57
2022-09-30T06:35:10.228Z,41.69
2022-09-30T06:37:37.969Z,41.58
2022-09-30T06:40:05.118Z,41.56
2022-09-30T06:42:31.603Z,41.64
2022-09-30T06:44:57.973Z,41.68
2022-09-30T06:47:26.045Z,41.37
2022-09-30T06:49:53.124Z,41.62
2022-09-30T06:52:20.185Z,41.74
2022-09-30T06:54:47.233Z,41.78
2022-09-30T06:57:13.759Z,41.77
2022-09-30T06:59:40.163Z,41.98
2022-09-30T07:02:06.623Z,41.78
2022-09-30T07:04:33.154Z,41.97
2022-09-30T07:06:59.528Z,42.12
2022-09-30T07:09:26.093Z,42.18
2022-09-30T07:11:52.637Z,42.19
2022-09-30T07:14:19.023Z,42.03
2022-09-30T07:16:46.305Z,42.00
2022-09-30T07:19:12.777Z,42.20
2022-09-30T07:21:39.105Z,42.56
2022-09-30T07:24:05.707Z,42.61
2022-09-30T07:26:32.454Z,42.36
2022-09-30T07:29:00.299Z,42.31
2022-09-30T07:31:33.110Z,42.39
2022-09-30T07:34:01.297Z,42.27
2022-09-30T07:36:32.527Z,42.34
2022-09-30T07:39:00.343Z,42.19
2022-09-30T07:41:29.041Z,42.17
2022-09-30T07:43:56.636Z,42.37
2022-09-30T07:46:24.787Z,42.51
2022-09-30T07:48:54.454Z,42.22
2022-09-30T07:51:22.174Z,42.33
2022-09-30T07:53:53.049Z,42.27
2022-09-30T07:56:19.954Z,41.94
2022-09-30T07:58:46.443Z,41.27
2022-09-30T08:01:13.494Z,40.57
2022-09-30T08:03:41.836Z,39.33
2022-09-30T08:06:09.802Z,39.81
2022-09-30T08:08:36.342Z,39.42
2022-09-30T08:11:03.812Z,39.04
2022-09-30T08:13:30.363Z,38.99
2022-09-30T08:15:56.845Z,39.04
2022-09-30T08:18:23.667Z,39.25
2022-09-30T08:20:50.158Z,39.45
2022-09-30T08:23:16.755Z,39.71
2022-09-30T08:25:43.231Z,39.86
2022-09-30T08:28:09.774Z,39.84
2022-09-30T08:30:36.537Z,39.95
2022-09-30T08:33:03.133Z,39.91
2022-09-30T08:35:29.654Z,39.94
2022-09-30T08:37:56.103Z,40.16
2022-09-30T08:40:27.671Z,40.05
2022-09-30T08:43:04.209Z,40.29
2022-09-30T08:45:39.877Z,40.14
2022-09-30T08:48:13.775Z,40.19
2022-09-30T08:50:54.000Z,40.26
2022-09-30T08:53:26.541Z,40.49
2022-09-30T08:55:54.501Z,40.22
2022-09-30T08:58:26.369Z,40.55
2022-09-30T09:00:55.682Z,40.35
2022-09-30T09:03:26.326Z,40.58
2022-09-30T09:05:55.909Z,40.66
2022-09-30T09:08:25.253Z,40.56
2022-09-30T09:10:56.035Z,40.53
2022-09-30T09:13:31.620Z,40.89
2022-09-30T09:16:11.447Z,40.77
2022-09-30T09:18:43.988Z,40.80
2022-09-30T09:21:32.032Z,41.12
2022-09-30T09:24:03.001Z,40.93
2022-09-30T09:26:35.674Z,41.12
2022-09-30T09:29:20.783Z,41.14
2022-09-30T09:31:48.327Z,41.02
2022-09-30T09:34:15.478Z,41.07
2022-09-30T09:36:54.115Z,41.23
2022-09-30T09:39:53.164Z,41.01
2022-09-30T09:42:19.730Z,41.32
2022-09-30T09:45:06.405Z,41.25
2022-09-30T09:47:33.560Z,41.55
2022-09-30T09:50:04.291Z,41.26
2022-09-30T09:52:49.567Z,41.18
2022-09-30T09:55:18.814Z,41.30
2022-09-30T09:57:45.306Z,41.36
2022-09-30T10:00:40.666Z,41.41
2022-09-30T10:03:22.197Z,41.33
2022-09-30T10:06:03.920Z,41.62
2022-09-30T10:08:31.638Z,41.43
2022-09-30T10:10:59.477Z,41.39
2022-09-30T10:13:38.038Z,41.59
2022-09-30T10:16:04.919Z,41.47
2022-09-30T10:18:38.181Z,41.32
2022-09-30T10:21:19.447Z,41.53
2022-09-30T10:23:46.217Z,41.71
2022-09-30T10:26:15.732Z,41.53
2022-09-30T10:28:49.575Z,41.48
2022-09-30T10:31:42.680Z,41.59
2022-09-30T10:34:15.304Z,41.64
2022-09-30T10:36:43.502Z,41.62
2022-09-30T10:39:30.362Z,41.86
2022-09-30T10:42:25.760Z,41.92
2022-09-30T10:44:57.634Z,41.91
2022-09-30T10:47:26.340Z,41.92
2022-09-30T10:49:59.802Z,41.80
2022-09-30T10:52:27.962Z,42.12
2022-09-30T10:54:58.030Z,41.85
2022-09-30T10:57:34.823Z,41.76
2022-09-30T11:00:11.626Z,41.82
2022-09-30T11:02:40.064Z,42.09
2022-09-30T11:05:09.611Z,42.00
2022-09-30T11:07:47.879Z,42.01
2022-09-30T11:10:25.279Z,41.90
2022-09-30T11:12:54.683Z,41.97
2022-09-30T11:15:28.245Z,41.84
2022-09-30T11:18:00.947Z,41.70
2022-09-30T11:20:41.084Z,41.92
2022-09-30T11:23:10.672Z,41.85
2022-09-30T11:25:43.034Z,41.74
2022-09-30T11:28:28.033Z,41.60
2022-09-30T11:31:14.506Z,41.60
2022-09-30T11:33:52.150Z,41.52
2022-09-30T11:36:28.370Z,41.44
2022-09-30T11:39:00.903Z,41.64
2022-09-30T11:41:30.174Z,41.53
2022-09-30T11:44:07.585Z,41.47
2022-09-30T11:46:46.105Z,41.44
2022-09-30T11:49:15.628Z,41.59
2022-09-30T11:52:03.264Z,41.61
2022-09-30T11:54:29.680Z,41.63
2022-09-30T11:57:01.966Z,41.65
2022-09-30T11:59:32.015Z,41.59
2022-09-30T12:02:01.193Z,41.68
2022-09-30T12:04:31.516Z,41.42
2022-09-30T12:07:01.307Z,41.56
2022-09-30T12:09:31.038Z,41.83
2022-09-30T12:11:57.504Z,41.64
2022-09-30T12:14:44.189Z,41.86
2022-09-30T12:17:37.047Z,42.06
2022-09-30T12:20:07.283Z,42.24
2022-09-30T12:22:40.194Z,42.17
2022-09-30T12:25:28.322Z,42.41
2022-09-30T12:28:22.606Z,42.59
2022-09-30T12:30:53.596Z,42.52
2022-09-30T12:33:33.078Z,42.58
2022-09-30T12:36:17.819Z,42.66
2022-09-30T12:38:54.831Z,42.60
2022-09-30T12:41:33.089Z,42.70
2022-09-30T12:48:57.872Z,42.94
2022-09-30T12:51:24.212Z,43.01
2022-09-30T12:53:52.896Z,42.99
2022-09-30T12:56:19.266Z,43.11
2022-09-30T12:58:49.507Z,43.12
2022-09-30T13:01:27.113Z,42.95
2022-09-30T13:04:13.499Z,43.18
2022-09-30T13:06:46.077Z,43.10
2022-09-30T13:09:29.336Z,43.26
2022-09-30T13:11:55.650Z,43.19
2022-09-30T13:14:26.305Z,43.07
2022-09-30T13:16:58.979Z,43.24
2022-09-30T13:19:33.739Z,43.35
2022-09-30T13:22:29.762Z,43.10
2022-09-30T13:24:59.293Z,43.20
2022-09-30T13:27:37.925Z,42.99
2022-09-30T13:30:13.506Z,43.32
2022-09-30T13:32:42.240Z,43.22
2022-09-30T13:35:28.756Z,43.45
2022-09-30T13:38:13.605Z,43.36
2022-09-30T13:41:02.926Z,43.25
2022-09-30T13:43:39.683Z,43.31
2022-09-30T13:46:21.046Z,43.38
2022-09-30T13:49:06.237Z,43.42
2022-09-30T13:51:33.677Z,43.32
2022-09-30T13:54:06.394Z,43.45
2022-09-30T13:56:34.197Z,43.38
2022-09-30T13:59:00.677Z,43.33
2022-09-30T14:01:27.213Z,43.66
2022-09-30T14:04:12.214Z,43.50
2022-09-30T14:06:57.765Z,43.60
2022-09-30T14:09:29.958Z,43.67
2022-09-30T14:12:13.575Z,43.63
2022-09-30T14:15:02.377Z,43.68
2022-09-30T14:17:46.785Z,43.43
2022-09-30T14:20:25.092Z,43.63
2022-09-30T14:22:51.728Z,43.52
2022-09-30T14:25:19.311Z,43.61
2022-09-30T14:27:56.751Z,43.55
2022-09-30T14:30:24.215Z,43.81
2022-09-30T14:32:58.512Z,43.71
2022-09-30T14:35:29.613Z,43.63
2022-09-30T14:37:59.096Z,43.68
2022-09-30T14:40:30.449Z,43.58
2022-09-30T14:43:02.857Z,43.76
2022-09-30T14:45:31.531Z,43.70
2022-09-30T14:48:01.632Z,43.59
2022-09-30T14:50:31.253Z,43.53
2022-09-30T14:55:26.842Z,43.88
2022-09-30T14:58:11.962Z,43.97
2022-09-30T15:00:38.390Z,43.73
2022-09-30T15:03:10.496Z,43.80
2022-09-30T15:08:03.182Z,43.58
2022-09-30T15:12:56.030Z,43.62
2022-09-30T15:17:51.824Z,44.06
2022-09-30T15:20:32.532Z,43.78
2022-09-30T15:23:01.078Z,43.76
2022-09-30T15:25:27.666Z,44.04
2022-09-30T15:27:54.694Z,43.75
2022-09-30T15:30:21.177Z,43.80
2022-09-30T15:32:50.306Z,43.78
2022-09-30T15:35:22.486Z,43.77
2022-09-30T15:37:48.917Z,43.98
2022-09-30T15:40:34.944Z,43.98
2022-09-30T15:43:03.238Z,44.07
2022-09-30T15:45:37.248Z,43.86
2022-09-30T15:48:16.872Z,44.04
2022-09-30T15:50:50.603Z,44.05
2022-09-30T15:53:24.196Z,44.15
2022-09-30T15:55:51.513Z,43.98
2022-09-30T15:58:27.104Z,43.97
2022-09-30T16:01:09.172Z,43.90
2022-09-30T16:03:36.269Z,44.07
2022-09-30T16:06:26.089Z,43.98
2022-09-30T16:08:54.934Z,44.13
2022-09-30T16:11:41.961Z,44.06
2022-09-30T16:14:10.634Z,43.81
2022-09-30T16:16:38.219Z,44.02
2022-09-30T16:19:05.590Z,44.13
2022-09-30T16:21:44.331Z,44.24
2022-09-30T16:24:34.047Z,43.84
2022-09-30T16:27:20.421Z,43.90
2022-09-30T16:29:46.870Z,44.06
2022-09-30T16:32:13.900Z,43.89
2022-09-30T16:34:40.532Z,43.86
2022-09-30T16:37:13.898Z,43.97
2022-09-30T16:39:40.439Z,44.15
2022-09-30T16:42:07.054Z,43.99
2022-09-30T16:44:37.717Z,44.25
2022-09-30T16:47:04.509Z,43.92
2022-09-30T16:49:30.994Z,43.81
2022-09-30T16:51:57.394Z,43.90
2022-09-30T16:54:23.783Z,43.84
2022-09-30T16:56:50.132Z,43.68
2022-09-30T16:59:18.032Z,43.81
2022-09-30T17:01:44.362Z,44.01
2022-09-30T17:04:14.003Z,44.01
2022-09-30T17:06:43.614Z,43.80
2022-09-30T17:09:10.074Z,43.98
2022-09-30T17:11:37.988Z,44.03
2022-09-30T17:14:05.073Z,43.89
2022-09-30T17:16:32.292Z,43.99
2022-09-30T17:18:59.011Z,43.95
2022-09-30T17:21:26.607Z,43.72
2022-09-30T17:23:54.130Z,43.81
2022-09-30T17:26:20.605Z,43.78
2022-09-30T17:28:47.529Z,43.73
2022-09-30T17:31:14.268Z,43.97
2022-09-30T17:33:40.974Z,44.08
2022-09-30T17:36:11.415Z,43.96
2022-09-30T17:38:38.309Z,44.04
2022-09-30T17:41:23.475Z,43.78
2022-09-30T17:43:49.945Z,43.65
2022-09-30T17:46:18.843Z,43.90
2022-09-30T17:48:46.535Z,43.95
2022-09-30T17:51:13.353Z,43.79
2022-09-30T17:53:39.825Z,44.02
2022-09-30T17:56:12.267Z,44.02
2022-09-30T17:58:39.784Z,43.77
2022-09-30T18:01:09.879Z,43.92
2022-09-30T18:03:36.825Z,43.78
2022-09-30T18:06:03.809Z,44.11
2022-09-30T18:08:30.185Z,43.73
2022-09-30T18:10:59.392Z,43.79
2022-09-30T18:13:26.058Z,43.92
2022-09-30T18:15:53.001Z,43.96
2022-09-30T18:18:19.417Z,43.77
2022-09-30T18:20:49.053Z,43.68
2022-09-30T18:23:19.141Z,43.99
2022-09-30T18:25:46.523Z,43.97
2022-09-30T18:28:13.453Z,43.99
2022-09-30T18:30:40.304Z,43.78
2022-09-30T18:33:07.372Z,44.05
2022-09-30T18:35:35.794Z,43.79
2022-09-30T18:38:02.254Z,43.94
2022-09-30T18:40:29.693Z,43.98
2022-09-30T18:42:59.981Z,43.77
2022-09-30T18:45:26.878Z,43.88
2022-09-30T18:47:55.423Z,43.79
2022-09-30T18:50:23.151Z,43.78
2022-09-30T18:52:50.902Z,43.76
2022-09-30T18:55:18.217Z,43.97
2022-09-30T18:57:47.845Z,43.77
2022-09-30T19:00:15.479Z,43.74
2022-09-30T19:02:43.947Z,44.01
2022-09-30T19:05:10.894Z,43.88
2022-09-30T19:07:39.123Z,43.96
2022-09-30T19:10:06.529Z,43.79
2022-09-30T19:12:33.810Z,43.82
2022-09-30T19:15:00.644Z,43.83
2022-09-30T19:17:31.787Z,43.79
2022-09-30T19:19:59.221Z,43.85
2022-09-30T19:22:25.591Z,43.97
2022-09-30T19:24:52.385Z,43.91
2022-09-30T19:27:18.794Z,43.67
2022-09-30T19:29:45.237Z,43.96
2022-09-30T19:32:12.820Z,43.79
2022-09-30T19:34:39.431Z,43.92
2022-09-30T19:37:07.317Z,44.02
2022-09-30T19:39:44.145Z,43.98
2022-09-30T19:42:14.260Z,43.81
2022-09-30T19:44:41.852Z,44.04
2022-09-30T19:47:08.269Z,44.02
2022-09-30T19:49:34.769Z,43.97
2022-09-30T19:52:14.101Z,43.65
2022-09-30T19:54:43.241Z,43.83
2022-09-30T19:57:09.668Z,43.98
2022-09-30T19:59:36.067Z,43.73
2022-09-30T20:02:02.568Z,44.01
2022-09-30T20:04:30.058Z,44.07
2022-09-30T20:06:56.548Z,44.04
2022-09-30T20:09:23.301Z,43.82
2022-09-30T20:11:53.816Z,43.97
2022-09-30T20:14:38.614Z,44.06
2022-09-30T20:17:05.213Z,43.81
2022-09-30T20:19:31.605Z,44.05
2022-09-30T20:21:58.210Z,43.96
2022-09-30T20:24:26.047Z,43.87
2022-09-30T20:26:52.481Z,43.93
2022-09-30T20:29:20.617Z,44.08
2022-09-30T20:31:48.229Z,43.81
2022-09-30T20:34:16.298Z,43.93
2022-09-30T20:36:43.390Z,43.93
2022-09-30T20:39:09.897Z,44.05
2022-09-30T20:41:37.227Z,44.23
2022-09-30T20:44:04.765Z,44.13
2022-09-30T20:46:32.051Z,44.07
2022-09-30T20:49:02.010Z,44.04
2022-09-30T20:51:29.394Z,44.00
2022-09-30T20:53:56.699Z,44.07
2022-09-30T20:56:24.335Z,44.13
2022-09-30T20:58:53.102Z,44.12
2022-09-30T21:01:21.960Z,44.05
2022-09-30T21:03:50.428Z,43.76
2022-09-30T21:06:26.931Z,43.91
2022-09-30T21:08:54.172Z,43.87
2022-09-30T21:11:22.292Z,43.88
2022-09-30T21:13:52.858Z,43.87
2022-09-30T21:16:20.966Z,44.08
2022-09-30T21:18:49.328Z,44.14
2022-09-30T21:21:17.393Z,43.95
2022-09-30T21:23:43.797Z,44.03
2022-09-30T21:26:12.068Z,44.19
2022-09-30T21:28:38.863Z,44.03
2022-09-30T21:31:13.979Z,43.96
2022-09-30T21:33:40.428Z,43.89
2022-09-30T21:36:06.898Z,43.86
2022-09-30T21:38:34.147Z,44.06
2022-09-30T21:41:02.090Z,43.91
2022-09-30T21:43:29.189Z,43.90
2022-09-30T21:46:22.417Z,43.64
2022-09-30T21:48:48.902Z,42.48
2022-09-30T21:51:17.091Z,42.11
2022-09-30T21:53:43.571Z,42.16
2022-09-30T21:56:11.632Z,42.50
2022-09-30T21:58:38.151Z,42.61
2022-09-30T22:01:05.836Z,42.56
2022-09-30T22:03:37.350Z,42.99
2022-09-30T22:06:06.705Z,43.21
2022-09-30T22:08:36.331Z,43.26
2022-09-30T22:11:06.749Z,42.96
2022-09-30T22:13:33.199Z,42.79
2022-09-30T22:16:04.289Z,42.97
2022-09-30T22:18:32.212Z,42.89
2022-09-30T22:21:03.155Z,43.15
2022-09-30T22:23:29.642Z,43.36
2022-09-30T22:25:58.973Z,43.50
2022-09-30T22:28:25.405Z,43.79
2022-09-30T22:30:51.853Z,44.15
2022-09-30T22:33:36.675Z,44.30
2022-09-30T22:36:21.542Z,44.17
2022-09-30T22:38:48.904Z,44.07
2022-09-30T22:41:16.341Z,44.04
2022-09-30T22:43:42.676Z,43.65
2022-09-30T22:46:09.107Z,43.66
2022-09-30T22:48:35.659Z,43.44
2022-09-30T22:51:02.074Z,43.14
2022-09-30T22:53:28.575Z,43.11
2022-09-30T22:55:55.235Z,42.96
2022-09-30T22:58:24.321Z,43.20
2022-09-30T23:00:51.603Z,42.92
2022-09-30T23:03:18.484Z,42.96
2022-09-30T23:05:46.216Z,43.06
2022-09-30T23:08:12.601Z,43.22
2022-09-30T23:10:44.980Z,42.96
2022-09-30T23:13:13.265Z,42.76
2022-09-30T23:15:39.605Z,42.87
2022-09-30T23:18:06.046Z,43.13
2022-09-30T23:20:32.872Z,43.11
2022-09-30T23:22:59.237Z,43.07
2022-09-30T23:25:25.589Z,43.43
2022-09-30T23:27:51.942Z,43.16
2022-09-30T23:30:18.382Z,43.00
2022-09-30T23:32:44.725Z,43.17
2022-09-30T23:35:13.424Z,43.39
2022-09-30T23:37:40.411Z,43.38
2022-09-30T23:40:07.022Z,43.22
2022-09-30T23:42:33.379Z,43.17
2022-09-30T23:44:59.705Z,43.30
2022-09-30T23:47:27.465Z,43.55
2022-09-30T23:49:55.426Z,43.50
2022-09-30T23:52:21.856Z,43.30
2022-09-30T23:54:48.259Z,43.59
2022-09-30T23:57:14.705Z,43.60
2022-09-30T23:59:41.084Z,43.18
